sensor_id;sensor_type;location;lat;lon;timestamp;P1;durP1;ratioP1;P2;durP2;ratioP2
54539;SDS011;40438;52.992;18.604;2023-08-30T00:01:23;29.50;;;14.50;;
54539;SDS011;40438;52.992;18.604;2023-08-30T00:03:49;30.50;;;13.82;;
54539;SDS011;40438;52.992;18.604;2023-08-30T00:06:15;29.65;;;13.98;;
54539;SDS011;40438;52.992;18.604;2023-08-30T00:08:42;29.60;;;12.60;;
54539;SDS011;40438;52.992;18.604;2023-08-30T00:11:08;25.40;;;10.68;;
54539;SDS011;40438;52.992;18.604;2023-08-30T00:13:34;22.92;;;11.55;;
54539;SDS011;40438;52.992;18.604;2023-08-30T00:15:59;26.33;;;11.65;;
54539;SDS011;40438;52.992;18.604;2023-08-30T00:18:25;29.95;;;11.13;;
54539;SDS011;40438;52.992;18.604;2023-08-30T00:20:51;20.65;;;10.13;;
54539;SDS011;40438;52.992;18.604;2023-08-30T00:23:17;21.08;;;9.90;;
54539;SDS011;40438;52.992;18.604;2023-08-30T00:25:44;21.73;;;10.30;;
54539;SDS011;40438;52.992;18.604;2023-08-30T00:28:10;22.10;;;9.75;;
54539;SDS011;40438;52.992;18.604;2023-08-30T00:30:35;19.17;;;8.95;;
54539;SDS011;40438;52.992;18.604;2023-08-30T00:33:03;18.42;;;9.35;;
54539;SDS011;40438;52.992;18.604;2023-08-30T00:35:29;20.33;;;9.65;;
54539;SDS011;40438;52.992;18.604;2023-08-30T00:37:55;20.88;;;8.98;;
54539;SDS011;40438;52.992;18.604;2023-08-30T00:40:22;23.27;;;10.70;;
54539;SDS011;40438;52.992;18.604;2023-08-30T00:42:50;22.40;;;9.70;;
54539;SDS011;40438;52.992;18.604;2023-08-30T00:45:15;22.80;;;10.15;;
54539;SDS011;40438;52.992;18.604;2023-08-30T00:47:41;26.08;;;9.63;;
54539;SDS011;40438;52.992;18.604;2023-08-30T00:50:07;23.80;;;10.38;;
54539;SDS011;40438;52.992;18.604;2023-08-30T00:52:34;29.05;;;11.25;;
54539;SDS011;40438;52.992;18.604;2023-08-30T00:55:00;26.25;;;11.20;;
54539;SDS011;40438;52.992;18.604;2023-08-30T00:57:26;26.00;;;10.60;;
54539;SDS011;40438;52.992;18.604;2023-08-30T00:59:53;22.45;;;11.48;;
54539;SDS011;40438;52.992;18.604;2023-08-30T01:02:20;20.42;;;10.27;;
54539;SDS011;40438;52.992;18.604;2023-08-30T01:04:47;22.63;;;10.85;;
54539;SDS011;40438;52.992;18.604;2023-08-30T01:07:13;23.13;;;10.35;;
54539;SDS011;40438;52.992;18.604;2023-08-30T01:09:38;22.00;;;10.20;;
54539;SDS011;40438;52.992;18.604;2023-08-30T01:12:07;18.17;;;9.98;;
54539;SDS011;40438;52.992;18.604;2023-08-30T01:14:38;23.10;;;10.77;;
54539;SDS011;40438;52.992;18.604;2023-08-30T01:17:10;20.23;;;9.93;;
54539;SDS011;40438;52.992;18.604;2023-08-30T01:19:39;21.38;;;9.85;;
54539;SDS011;40438;52.992;18.604;2023-08-30T01:22:12;17.52;;;8.57;;
54539;SDS011;40438;52.992;18.604;2023-08-30T01:24:44;16.33;;;8.27;;
54539;SDS011;40438;52.992;18.604;2023-08-30T01:27:16;21.63;;;8.70;;
54539;SDS011;40438;52.992;18.604;2023-08-30T01:29:44;18.10;;;8.60;;
54539;SDS011;40438;52.992;18.604;2023-08-30T01:32:11;19.27;;;9.27;;
54539;SDS011;40438;52.992;18.604;2023-08-30T01:34:38;18.42;;;8.00;;
54539;SDS011;40438;52.992;18.604;2023-08-30T01:37:05;14.32;;;7.68;;
54539;SDS011;40438;52.992;18.604;2023-08-30T01:39:33;18.27;;;8.15;;
54539;SDS011;40438;52.992;18.604;2023-08-30T01:42:00;16.35;;;8.65;;
54539;SDS011;40438;52.992;18.604;2023-08-30T01:44:29;15.73;;;8.15;;
54539;SDS011;40438;52.992;18.604;2023-08-30T01:46:56;15.93;;;8.43;;
54539;SDS011;40438;52.992;18.604;2023-08-30T01:49:22;12.15;;;7.25;;
54539;SDS011;40438;52.992;18.604;2023-08-30T01:51:50;15.32;;;8.13;;
54539;SDS011;40438;52.992;18.604;2023-08-30T01:54:17;17.27;;;9.00;;
54539;SDS011;40438;52.992;18.604;2023-08-30T01:56:43;17.73;;;8.63;;
54539;SDS011;40438;52.992;18.604;2023-08-30T01:59:11;15.77;;;8.75;;
54539;SDS011;40438;52.992;18.604;2023-08-30T02:01:38;15.77;;;8.35;;
54539;SDS011;40438;52.992;18.604;2023-08-30T02:04:04;19.42;;;8.70;;
54539;SDS011;40438;52.992;18.604;2023-08-30T02:06:31;15.18;;;8.55;;
54539;SDS011;40438;52.992;18.604;2023-08-30T02:09:04;17.73;;;8.98;;
54539;SDS011;40438;52.992;18.604;2023-08-30T02:11:39;16.42;;;8.77;;
54539;SDS011;40438;52.992;18.604;2023-08-30T02:14:09;16.90;;;9.05;;
54539;SDS011;40438;52.992;18.604;2023-08-30T02:16:37;16.75;;;9.07;;
54539;SDS011;40438;52.992;18.604;2023-08-30T02:19:05;17.73;;;8.63;;
54539;SDS011;40438;52.992;18.604;2023-08-30T02:21:31;16.23;;;8.70;;
54539;SDS011;40438;52.992;18.604;2023-08-30T02:23:57;14.65;;;8.93;;
54539;SDS011;40438;52.992;18.604;2023-08-30T02:26:23;15.38;;;7.47;;
54539;SDS011;40438;52.992;18.604;2023-08-30T02:28:49;14.85;;;8.13;;
54539;SDS011;40438;52.992;18.604;2023-08-30T02:31:15;16.33;;;8.45;;
54539;SDS011;40438;52.992;18.604;2023-08-30T02:33:42;19.35;;;8.70;;
54539;SDS011;40438;52.992;18.604;2023-08-30T02:36:10;15.52;;;7.93;;
54539;SDS011;40438;52.992;18.604;2023-08-30T02:38:36;17.77;;;8.57;;
54539;SDS011;40438;52.992;18.604;2023-08-30T02:41:01;18.70;;;9.63;;
54539;SDS011;40438;52.992;18.604;2023-08-30T02:43:27;18.25;;;8.73;;
54539;SDS011;40438;52.992;18.604;2023-08-30T02:45:53;23.42;;;8.98;;
54539;SDS011;40438;52.992;18.604;2023-08-30T02:48:19;19.52;;;9.07;;
54539;SDS011;40438;52.992;18.604;2023-08-30T02:50:46;17.60;;;8.38;;
54539;SDS011;40438;52.992;18.604;2023-08-30T02:53:12;18.50;;;8.82;;
54539;SDS011;40438;52.992;18.604;2023-08-30T02:55:38;19.63;;;9.25;;
54539;SDS011;40438;52.992;18.604;2023-08-30T02:58:04;21.55;;;9.73;;
54539;SDS011;40438;52.992;18.604;2023-08-30T03:00:30;17.30;;;9.50;;
54539;SDS011;40438;52.992;18.604;2023-08-30T03:02:56;18.00;;;9.88;;
54539;SDS011;40438;52.992;18.604;2023-08-30T03:05:22;19.75;;;10.15;;
54539;SDS011;40438;52.992;18.604;2023-08-30T03:07:52;22.33;;;9.90;;
54539;SDS011;40438;52.992;18.604;2023-08-30T03:10:20;20.55;;;9.57;;
54539;SDS011;40438;52.992;18.604;2023-08-30T03:12:46;20.30;;;10.13;;
54539;SDS011;40438;52.992;18.604;2023-08-30T03:15:12;21.05;;;10.05;;
54539;SDS011;40438;52.992;18.604;2023-08-30T03:17:37;19.48;;;9.35;;
54539;SDS011;40438;52.992;18.604;2023-08-30T03:20:04;21.13;;;10.38;;
54539;SDS011;40438;52.992;18.604;2023-08-30T03:22:31;22.25;;;10.45;;
54539;SDS011;40438;52.992;18.604;2023-08-30T03:24:58;21.83;;;9.15;;
54539;SDS011;40438;52.992;18.604;2023-08-30T03:27:24;17.50;;;9.55;;
54539;SDS011;40438;52.992;18.604;2023-08-30T03:29:49;21.27;;;9.50;;
54539;SDS011;40438;52.992;18.604;2023-08-30T03:32:16;21.50;;;9.68;;
54539;SDS011;40438;52.992;18.604;2023-08-30T03:34:43;19.50;;;9.55;;
54539;SDS011;40438;52.992;18.604;2023-08-30T03:37:10;17.08;;;9.10;;
54539;SDS011;40438;52.992;18.604;2023-08-30T03:39:36;19.05;;;9.05;;
54539;SDS011;40438;52.992;18.604;2023-08-30T03:42:03;17.30;;;8.63;;
54539;SDS011;40438;52.992;18.604;2023-08-30T03:44:29;18.00;;;8.98;;
54539;SDS011;40438;52.992;18.604;2023-08-30T03:46:55;16.60;;;8.10;;
54539;SDS011;40438;52.992;18.604;2023-08-30T03:49:21;18.80;;;8.73;;
54539;SDS011;40438;52.992;18.604;2023-08-30T03:51:47;18.60;;;9.02;;
54539;SDS011;40438;52.992;18.604;2023-08-30T03:54:13;20.92;;;9.15;;
54539;SDS011;40438;52.992;18.604;2023-08-30T03:56:38;20.80;;;8.48;;
54539;SDS011;40438;52.992;18.604;2023-08-30T03:59:06;15.88;;;7.93;;
54539;SDS011;40438;52.992;18.604;2023-08-30T04:01:32;16.05;;;7.57;;
54539;SDS011;40438;52.992;18.604;2023-08-30T04:03:57;15.23;;;7.53;;
54539;SDS011;40438;52.992;18.604;2023-08-30T04:06:23;20.10;;;8.20;;
54539;SDS011;40438;52.992;18.604;2023-08-30T04:08:49;15.05;;;7.07;;
54539;SDS011;40438;52.992;18.604;2023-08-30T04:11:16;17.92;;;8.38;;
54539;SDS011;40438;52.992;18.604;2023-08-30T04:13:42;15.70;;;7.97;;
54539;SDS011;40438;52.992;18.604;2023-08-30T04:16:09;14.85;;;7.72;;
54539;SDS011;40438;52.992;18.604;2023-08-30T04:18:35;21.25;;;8.40;;
54539;SDS011;40438;52.992;18.604;2023-08-30T04:21:01;16.15;;;7.53;;
54539;SDS011;40438;52.992;18.604;2023-08-30T04:23:27;17.20;;;7.05;;
54539;SDS011;40438;52.992;18.604;2023-08-30T04:25:53;19.50;;;7.53;;
54539;SDS011;40438;52.992;18.604;2023-08-30T04:28:19;19.50;;;7.95;;
54539;SDS011;40438;52.992;18.604;2023-08-30T04:30:47;15.63;;;7.10;;
54539;SDS011;40438;52.992;18.604;2023-08-30T04:33:14;18.52;;;7.68;;
54539;SDS011;40438;52.992;18.604;2023-08-30T04:35:40;16.65;;;7.68;;
54539;SDS011;40438;52.992;18.604;2023-08-30T04:38:05;15.52;;;8.15;;
54539;SDS011;40438;52.992;18.604;2023-08-30T04:40:31;15.05;;;7.75;;
54539;SDS011;40438;52.992;18.604;2023-08-30T04:42:57;19.90;;;8.57;;
54539;SDS011;40438;52.992;18.604;2023-08-30T04:45:23;15.48;;;7.53;;
54539;SDS011;40438;52.992;18.604;2023-08-30T04:47:49;16.38;;;6.72;;
54539;SDS011;40438;52.992;18.604;2023-08-30T04:50:16;15.77;;;7.80;;
54539;SDS011;40438;52.992;18.604;2023-08-30T04:52:42;20.05;;;8.70;;
54539;SDS011;40438;52.992;18.604;2023-08-30T04:55:09;15.93;;;7.35;;
54539;SDS011;40438;52.992;18.604;2023-08-30T04:57:35;14.88;;;7.10;;
54539;SDS011;40438;52.992;18.604;2023-08-30T05:00:03;20.63;;;9.30;;
54539;SDS011;40438;52.992;18.604;2023-08-30T05:02:30;18.92;;;8.85;;
54539;SDS011;40438;52.992;18.604;2023-08-30T05:07:31;12.93;;;7.38;;
54539;SDS011;40438;52.992;18.604;2023-08-30T05:09:56;15.23;;;7.38;;
54539;SDS011;40438;52.992;18.604;2023-08-30T05:12:22;16.33;;;7.70;;
54539;SDS011;40438;52.992;18.604;2023-08-30T05:14:48;17.27;;;7.57;;
54539;SDS011;40438;52.992;18.604;2023-08-30T05:17:14;15.38;;;7.72;;
54539;SDS011;40438;52.992;18.604;2023-08-30T05:19:39;18.58;;;8.10;;
54539;SDS011;40438;52.992;18.604;2023-08-30T05:22:05;14.70;;;7.68;;
54539;SDS011;40438;52.992;18.604;2023-08-30T05:24:32;15.48;;;7.60;;
54539;SDS011;40438;52.992;18.604;2023-08-30T05:26:59;13.50;;;7.50;;
54539;SDS011;40438;52.992;18.604;2023-08-30T05:29:26;13.90;;;7.40;;
54539;SDS011;40438;52.992;18.604;2023-08-30T05:31:51;13.48;;;7.10;;
54539;SDS011;40438;52.992;18.604;2023-08-30T05:34:40;12.75;;;6.97;;
54539;SDS011;40438;52.992;18.604;2023-08-30T05:37:15;12.25;;;6.68;;
54539;SDS011;40438;52.992;18.604;2023-08-30T05:40:02;14.55;;;7.43;;
54539;SDS011;40438;52.992;18.604;2023-08-30T05:42:28;14.70;;;6.35;;
54539;SDS011;40438;52.992;18.604;2023-08-30T05:44:55;16.42;;;6.75;;
54539;SDS011;40438;52.992;18.604;2023-08-30T05:47:21;12.30;;;6.78;;
54539;SDS011;40438;52.992;18.604;2023-08-30T05:49:47;10.57;;;6.57;;
54539;SDS011;40438;52.992;18.604;2023-08-30T05:54:39;14.57;;;7.22;;
54539;SDS011;40438;52.992;18.604;2023-08-30T05:57:09;13.98;;;6.43;;
54539;SDS011;40438;52.992;18.604;2023-08-30T05:59:35;12.77;;;6.60;;
54539;SDS011;40438;52.992;18.604;2023-08-30T06:02:01;16.10;;;7.10;;
54539;SDS011;40438;52.992;18.604;2023-08-30T06:04:27;11.48;;;6.05;;
54539;SDS011;40438;52.992;18.604;2023-08-30T06:06:53;10.95;;;5.88;;
54539;SDS011;40438;52.992;18.604;2023-08-30T06:09:18;11.10;;;5.97;;
54539;SDS011;40438;52.992;18.604;2023-08-30T06:11:44;14.32;;;6.03;;
54539;SDS011;40438;52.992;18.604;2023-08-30T06:14:11;11.75;;;6.05;;
54539;SDS011;40438;52.992;18.604;2023-08-30T06:16:37;13.77;;;6.18;;
54539;SDS011;40438;52.992;18.604;2023-08-30T06:19:03;9.73;;;5.95;;
54539;SDS011;40438;52.992;18.604;2023-08-30T06:21:29;10.32;;;5.45;;
54539;SDS011;40438;52.992;18.604;2023-08-30T06:23:54;9.35;;;5.20;;
54539;SDS011;40438;52.992;18.604;2023-08-30T06:26:20;9.00;;;4.88;;
54539;SDS011;40438;52.992;18.604;2023-08-30T06:28:46;8.63;;;4.57;;
54539;SDS011;40438;52.992;18.604;2023-08-30T06:31:13;7.88;;;4.45;;
54539;SDS011;40438;52.992;18.604;2023-08-30T06:33:39;10.90;;;4.35;;
54539;SDS011;40438;52.992;18.604;2023-08-30T06:36:05;9.05;;;4.35;;
54539;SDS011;40438;52.992;18.604;2023-08-30T06:38:30;7.10;;;4.10;;
54539;SDS011;40438;52.992;18.604;2023-08-30T06:40:57;7.28;;;4.10;;
54539;SDS011;40438;52.992;18.604;2023-08-30T06:43:23;6.95;;;4.03;;
54539;SDS011;40438;52.992;18.604;2023-08-30T06:45:50;5.88;;;3.63;;
54539;SDS011;40438;52.992;18.604;2023-08-30T06:48:17;6.25;;;3.55;;
54539;SDS011;40438;52.992;18.604;2023-08-30T06:50:43;8.18;;;4.35;;
54539;SDS011;40438;52.992;18.604;2023-08-30T06:53:09;6.47;;;3.25;;
54539;SDS011;40438;52.992;18.604;2023-08-30T06:55:35;5.80;;;3.15;;
54539;SDS011;40438;52.992;18.604;2023-08-30T06:58:01;5.97;;;3.47;;
54539;SDS011;40438;52.992;18.604;2023-08-30T07:00:26;6.35;;;2.97;;
54539;SDS011;40438;52.992;18.604;2023-08-30T07:02:52;4.50;;;2.88;;
54539;SDS011;40438;52.992;18.604;2023-08-30T07:05:20;5.57;;;3.25;;
54539;SDS011;40438;52.992;18.604;2023-08-30T07:07:47;5.43;;;2.90;;
54539;SDS011;40438;52.992;18.604;2023-08-30T07:10:12;4.53;;;2.45;;
54539;SDS011;40438;52.992;18.604;2023-08-30T07:12:38;4.90;;;3.00;;
54539;SDS011;40438;52.992;18.604;2023-08-30T07:15:04;4.00;;;2.58;;
54539;SDS011;40438;52.992;18.604;2023-08-30T07:17:31;3.63;;;2.50;;
54539;SDS011;40438;52.992;18.604;2023-08-30T07:19:56;3.20;;;2.05;;
54539;SDS011;40438;52.992;18.604;2023-08-30T07:22:24;4.30;;;2.03;;
54539;SDS011;40438;52.992;18.604;2023-08-30T07:24:49;3.03;;;1.88;;
54539;SDS011;40438;52.992;18.604;2023-08-30T07:27:15;3.22;;;1.98;;
54539;SDS011;40438;52.992;18.604;2023-08-30T07:29:41;1.85;;;1.45;;
54539;SDS011;40438;52.992;18.604;2023-08-30T07:32:07;2.67;;;1.77;;
54539;SDS011;40438;52.992;18.604;2023-08-30T07:34:33;1.83;;;1.45;;
54539;SDS011;40438;52.992;18.604;2023-08-30T07:36:59;2.90;;;1.80;;
54539;SDS011;40438;52.992;18.604;2023-08-30T07:39:26;3.22;;;1.85;;
54539;SDS011;40438;52.992;18.604;2023-08-30T07:41:52;2.58;;;1.70;;
54539;SDS011;40438;52.992;18.604;2023-08-30T07:44:17;2.97;;;1.85;;
54539;SDS011;40438;52.992;18.604;2023-08-30T07:46:43;4.68;;;2.00;;
54539;SDS011;40438;52.992;18.604;2023-08-30T07:49:09;2.63;;;1.75;;
54539;SDS011;40438;52.992;18.604;2023-08-30T07:51:35;3.13;;;2.20;;
54539;SDS011;40438;52.992;18.604;2023-08-30T07:54:00;2.90;;;1.80;;
54539;SDS011;40438;52.992;18.604;2023-08-30T07:56:27;2.17;;;1.70;;
54539;SDS011;40438;52.992;18.604;2023-08-30T07:58:53;4.20;;;1.67;;
54539;SDS011;40438;52.992;18.604;2023-08-30T08:01:19;2.30;;;1.90;;
54539;SDS011;40438;52.992;18.604;2023-08-30T08:03:45;2.03;;;1.58;;
54539;SDS011;40438;52.992;18.604;2023-08-30T08:06:11;2.00;;;1.52;;
54539;SDS011;40438;52.992;18.604;2023-08-30T08:08:36;2.25;;;1.70;;
54539;SDS011;40438;52.992;18.604;2023-08-30T08:11:02;1.92;;;1.30;;
54539;SDS011;40438;52.992;18.604;2023-08-30T08:13:29;4.47;;;2.95;;
54539;SDS011;40438;52.992;18.604;2023-08-30T08:15:55;2.42;;;1.27;;
54539;SDS011;40438;52.992;18.604;2023-08-30T08:18:21;3.22;;;1.55;;
54539;SDS011;40438;52.992;18.604;2023-08-30T08:20:47;2.63;;;1.60;;
54539;SDS011;40438;52.992;18.604;2023-08-30T08:23:13;1.80;;;1.48;;
54539;SDS011;40438;52.992;18.604;2023-08-30T08:25:38;6.63;;;1.60;;
54539;SDS011;40438;52.992;18.604;2023-08-30T08:28:04;3.45;;;1.88;;
54539;SDS011;40438;52.992;18.604;2023-08-30T08:30:32;3.58;;;2.03;;
54539;SDS011;40438;52.992;18.604;2023-08-30T08:32:57;3.50;;;2.55;;
54539;SDS011;40438;52.992;18.604;2023-08-30T08:35:23;3.33;;;2.53;;
54539;SDS011;40438;52.992;18.604;2023-08-30T08:37:49;2.40;;;1.98;;
54539;SDS011;40438;52.992;18.604;2023-08-30T08:40:15;8.48;;;2.20;;
54539;SDS011;40438;52.992;18.604;2023-08-30T08:42:41;2.53;;;2.15;;
54539;SDS011;40438;52.992;18.604;2023-08-30T08:45:07;2.88;;;1.77;;
54539;SDS011;40438;52.992;18.604;2023-08-30T08:47:36;2.80;;;1.98;;
54539;SDS011;40438;52.992;18.604;2023-08-30T08:50:02;4.93;;;2.28;;
54539;SDS011;40438;52.992;18.604;2023-08-30T08:52:29;3.63;;;2.35;;
54539;SDS011;40438;52.992;18.604;2023-08-30T08:54:55;3.95;;;2.00;;
54539;SDS011;40438;52.992;18.604;2023-08-30T08:57:22;3.58;;;2.10;;
54539;SDS011;40438;52.992;18.604;2023-08-30T08:59:49;2.30;;;2.00;;
54539;SDS011;40438;52.992;18.604;2023-08-30T09:02:15;3.65;;;2.30;;
54539;SDS011;40438;52.992;18.604;2023-08-30T09:04:42;2.65;;;1.88;;
54539;SDS011;40438;52.992;18.604;2023-08-30T09:07:08;3.50;;;2.80;;
54539;SDS011;40438;52.992;18.604;2023-08-30T09:09:34;3.15;;;2.20;;
54539;SDS011;40438;52.992;18.604;2023-08-30T09:12:00;3.60;;;2.33;;
54539;SDS011;40438;52.992;18.604;2023-08-30T09:14:25;2.47;;;1.90;;
54539;SDS011;40438;52.992;18.604;2023-08-30T09:16:56;2.47;;;2.10;;
54539;SDS011;40438;52.992;18.604;2023-08-30T09:19:22;7.05;;;3.00;;
54539;SDS011;40438;52.992;18.604;2023-08-30T09:21:52;3.83;;;2.47;;
54539;SDS011;40438;52.992;18.604;2023-08-30T09:24:18;7.30;;;2.78;;
54539;SDS011;40438;52.992;18.604;2023-08-30T09:26:46;3.08;;;2.75;;
54539;SDS011;40438;52.992;18.604;2023-08-30T09:29:13;6.55;;;2.70;;
54539;SDS011;40438;52.992;18.604;2023-08-30T09:31:39;7.88;;;4.35;;
54539;SDS011;40438;52.992;18.604;2023-08-30T09:34:05;7.43;;;2.85;;
54539;SDS011;40438;52.992;18.604;2023-08-30T09:36:34;4.38;;;3.30;;
54539;SDS011;40438;52.992;18.604;2023-08-30T09:39:04;6.15;;;3.40;;
54539;SDS011;40438;52.992;18.604;2023-08-30T09:41:30;4.07;;;3.05;;
54539;SDS011;40438;52.992;18.604;2023-08-30T09:43:56;5.53;;;3.53;;
54539;SDS011;40438;52.992;18.604;2023-08-30T09:46:22;5.90;;;3.63;;
54539;SDS011;40438;52.992;18.604;2023-08-30T09:48:48;4.55;;;3.17;;
54539;SDS011;40438;52.992;18.604;2023-08-30T09:51:14;4.50;;;3.30;;
54539;SDS011;40438;52.992;18.604;2023-08-30T09:53:42;6.72;;;2.88;;
54539;SDS011;40438;52.992;18.604;2023-08-30T09:56:12;3.75;;;2.78;;
54539;SDS011;40438;52.992;18.604;2023-08-30T09:58:39;3.53;;;2.70;;
54539;SDS011;40438;52.992;18.604;2023-08-30T10:01:06;6.38;;;3.25;;
54539;SDS011;40438;52.992;18.604;2023-08-30T10:03:34;5.10;;;3.20;;
54539;SDS011;40438;52.992;18.604;2023-08-30T10:06:00;5.90;;;3.10;;
54539;SDS011;40438;52.992;18.604;2023-08-30T10:08:27;7.95;;;3.38;;
54539;SDS011;40438;52.992;18.604;2023-08-30T10:10:55;4.40;;;2.97;;
54539;SDS011;40438;52.992;18.604;2023-08-30T10:13:24;5.90;;;3.38;;
54539;SDS011;40438;52.992;18.604;2023-08-30T10:15:51;5.28;;;3.15;;
54539;SDS011;40438;52.992;18.604;2023-08-30T10:18:22;5.75;;;3.20;;
54539;SDS011;40438;52.992;18.604;2023-08-30T10:20:50;5.63;;;3.47;;
54539;SDS011;40438;52.992;18.604;2023-08-30T10:23:20;6.35;;;3.50;;
54539;SDS011;40438;52.992;18.604;2023-08-30T10:25:47;3.80;;;3.08;;
54539;SDS011;40438;52.992;18.604;2023-08-30T10:28:14;7.70;;;3.55;;
54539;SDS011;40438;52.992;18.604;2023-08-30T10:30:43;5.38;;;3.63;;
54539;SDS011;40438;52.992;18.604;2023-08-30T10:33:12;4.28;;;3.20;;
54539;SDS011;40438;52.992;18.604;2023-08-30T10:35:46;5.22;;;3.63;;
54539;SDS011;40438;52.992;18.604;2023-08-30T10:38:12;5.65;;;3.60;;
54539;SDS011;40438;52.992;18.604;2023-08-30T10:40:44;5.35;;;3.53;;
54539;SDS011;40438;52.992;18.604;2023-08-30T10:43:11;5.43;;;3.08;;
54539;SDS011;40438;52.992;18.604;2023-08-30T10:45:37;4.60;;;3.45;;
54539;SDS011;40438;52.992;18.604;2023-08-30T10:48:04;5.82;;;3.05;;
54539;SDS011;40438;52.992;18.604;2023-08-30T10:50:32;4.68;;;3.08;;
54539;SDS011;40438;52.992;18.604;2023-08-30T10:52:58;4.60;;;3.10;;
54539;SDS011;40438;52.992;18.604;2023-08-30T10:55:24;4.32;;;3.13;;
54539;SDS011;40438;52.992;18.604;2023-08-30T10:57:57;5.80;;;3.33;;
54539;SDS011;40438;52.992;18.604;2023-08-30T11:00:24;8.55;;;3.30;;
54539;SDS011;40438;52.992;18.604;2023-08-30T11:02:52;4.72;;;3.35;;
54539;SDS011;40438;52.992;18.604;2023-08-30T11:05:21;4.25;;;2.95;;
54539;SDS011;40438;52.992;18.604;2023-08-30T11:07:48;4.18;;;3.00;;
54539;SDS011;40438;52.992;18.604;2023-08-30T11:10:14;7.50;;;2.97;;
54539;SDS011;40438;52.992;18.604;2023-08-30T11:12:40;8.40;;;3.20;;
54539;SDS011;40438;52.992;18.604;2023-08-30T11:15:06;3.33;;;2.50;;
54539;SDS011;40438;52.992;18.604;2023-08-30T11:17:33;3.75;;;3.00;;
54539;SDS011;40438;52.992;18.604;2023-08-30T11:20:05;3.53;;;2.53;;
54539;SDS011;40438;52.992;18.604;2023-08-30T11:22:34;3.33;;;2.80;;
54539;SDS011;40438;52.992;18.604;2023-08-30T11:25:01;8.98;;;2.85;;
54539;SDS011;40438;52.992;18.604;2023-08-30T11:27:26;3.15;;;2.20;;
54539;SDS011;40438;52.992;18.604;2023-08-30T11:29:52;4.28;;;2.80;;
54539;SDS011;40438;52.992;18.604;2023-08-30T11:32:18;4.35;;;3.00;;
54539;SDS011;40438;52.992;18.604;2023-08-30T11:34:54;3.45;;;2.35;;
54539;SDS011;40438;52.992;18.604;2023-08-30T11:37:21;4.47;;;2.75;;
54539;SDS011;40438;52.992;18.604;2023-08-30T11:39:48;3.88;;;2.85;;
54539;SDS011;40438;52.992;18.604;2023-08-30T11:42:17;7.18;;;2.92;;
54539;SDS011;40438;52.992;18.604;2023-08-30T11:44:43;3.28;;;2.63;;
54539;SDS011;40438;52.992;18.604;2023-08-30T11:47:09;4.40;;;2.83;;
54539;SDS011;40438;52.992;18.604;2023-08-30T11:49:35;4.53;;;3.13;;
54539;SDS011;40438;52.992;18.604;2023-08-30T11:52:02;5.20;;;2.75;;
54539;SDS011;40438;52.992;18.604;2023-08-30T11:54:28;2.95;;;2.40;;
54539;SDS011;40438;52.992;18.604;2023-08-30T11:56:55;4.72;;;2.67;;
54539;SDS011;40438;52.992;18.604;2023-08-30T11:59:21;4.80;;;3.17;;
54539;SDS011;40438;52.992;18.604;2023-08-30T12:01:47;3.45;;;2.58;;
54539;SDS011;40438;52.992;18.604;2023-08-30T12:04:14;5.55;;;2.75;;
54539;SDS011;40438;52.992;18.604;2023-08-30T12:06:40;4.63;;;3.30;;
54539;SDS011;40438;52.992;18.604;2023-08-30T12:09:05;4.70;;;2.80;;
54539;SDS011;40438;52.992;18.604;2023-08-30T12:11:37;3.50;;;2.58;;
54539;SDS011;40438;52.992;18.604;2023-08-30T12:14:04;4.68;;;3.00;;
54539;SDS011;40438;52.992;18.604;2023-08-30T12:16:30;4.55;;;2.88;;
54539;SDS011;40438;52.992;18.604;2023-08-30T12:18:56;5.40;;;3.42;;
54539;SDS011;40438;52.992;18.604;2023-08-30T12:21:38;5.68;;;2.70;;
54539;SDS011;40438;52.992;18.604;2023-08-30T12:24:05;3.53;;;2.45;;
54539;SDS011;40438;52.992;18.604;2023-08-30T12:26:31;7.55;;;3.03;;
54539;SDS011;40438;52.992;18.604;2023-08-30T12:28:57;5.07;;;3.55;;
54539;SDS011;40438;52.992;18.604;2023-08-30T12:31:24;4.47;;;2.70;;
54539;SDS011;40438;52.992;18.604;2023-08-30T12:33:50;12.77;;;3.15;;
54539;SDS011;40438;52.992;18.604;2023-08-30T12:36:16;4.28;;;3.17;;
54539;SDS011;40438;52.992;18.604;2023-08-30T12:38:41;4.47;;;3.08;;
54539;SDS011;40438;52.992;18.604;2023-08-30T12:41:07;4.68;;;2.90;;
54539;SDS011;40438;52.992;18.604;2023-08-30T12:43:33;4.70;;;2.83;;
54539;SDS011;40438;52.992;18.604;2023-08-30T12:45:59;4.15;;;2.90;;
54539;SDS011;40438;52.992;18.604;2023-08-30T12:48:26;3.45;;;2.70;;
54539;SDS011;40438;52.992;18.604;2023-08-30T12:50:51;4.18;;;2.75;;
54539;SDS011;40438;52.992;18.604;2023-08-30T12:53:17;4.57;;;2.97;;
54539;SDS011;40438;52.992;18.604;2023-08-30T12:55:43;5.13;;;3.28;;
54539;SDS011;40438;52.992;18.604;2023-08-30T12:58:09;6.15;;;2.97;;
54539;SDS011;40438;52.992;18.604;2023-08-30T13:00:35;3.90;;;2.95;;
54539;SDS011;40438;52.992;18.604;2023-08-30T13:03:01;4.10;;;2.95;;
54539;SDS011;40438;52.992;18.604;2023-08-30T13:05:28;4.75;;;3.00;;
54539;SDS011;40438;52.992;18.604;2023-08-30T13:07:54;4.75;;;2.95;;
54539;SDS011;40438;52.992;18.604;2023-08-30T13:10:20;5.93;;;3.08;;
54539;SDS011;40438;52.992;18.604;2023-08-30T13:12:46;4.85;;;2.75;;
54539;SDS011;40438;52.992;18.604;2023-08-30T13:15:12;4.25;;;3.13;;
54539;SDS011;40438;52.992;18.604;2023-08-30T13:17:38;3.20;;;2.80;;
54539;SDS011;40438;52.992;18.604;2023-08-30T13:20:04;4.13;;;2.67;;
54539;SDS011;40438;52.992;18.604;2023-08-30T13:22:31;4.00;;;2.30;;
54539;SDS011;40438;52.992;18.604;2023-08-30T13:24:57;3.65;;;2.40;;
54539;SDS011;40438;52.992;18.604;2023-08-30T13:27:23;4.28;;;3.03;;
54539;SDS011;40438;52.992;18.604;2023-08-30T13:29:49;3.25;;;2.13;;
54539;SDS011;40438;52.992;18.604;2023-08-30T13:32:14;4.28;;;1.77;;
54539;SDS011;40438;52.992;18.604;2023-08-30T13:34:40;3.33;;;2.20;;
54539;SDS011;40438;52.992;18.604;2023-08-30T13:37:06;2.33;;;1.70;;
54539;SDS011;40438;52.992;18.604;2023-08-30T13:39:33;2.50;;;1.83;;
54539;SDS011;40438;52.992;18.604;2023-08-30T13:41:59;2.80;;;1.63;;
54539;SDS011;40438;52.992;18.604;2023-08-30T13:44:25;3.88;;;2.00;;
54539;SDS011;40438;52.992;18.604;2023-08-30T13:46:50;3.13;;;1.70;;
54539;SDS011;40438;52.992;18.604;2023-08-30T13:49:16;3.28;;;1.90;;
54539;SDS011;40438;52.992;18.604;2023-08-30T13:51:42;2.30;;;1.90;;
54539;SDS011;40438;52.992;18.604;2023-08-30T13:54:08;2.45;;;2.10;;
54539;SDS011;40438;52.992;18.604;2023-08-30T13:56:35;3.00;;;1.90;;
54539;SDS011;40438;52.992;18.604;2023-08-30T13:59:01;2.38;;;1.95;;
54539;SDS011;40438;52.992;18.604;2023-08-30T14:01:27;3.27;;;2.30;;
54539;SDS011;40438;52.992;18.604;2023-08-30T14:03:52;3.22;;;2.30;;
54539;SDS011;40438;52.992;18.604;2023-08-30T14:06:18;3.15;;;2.50;;
54539;SDS011;40438;52.992;18.604;2023-08-30T14:08:44;3.65;;;2.67;;
54539;SDS011;40438;52.992;18.604;2023-08-30T14:11:09;3.72;;;2.63;;
54539;SDS011;40438;52.992;18.604;2023-08-30T14:13:37;5.65;;;2.80;;
54539;SDS011;40438;52.992;18.604;2023-08-30T14:16:03;3.53;;;2.60;;
54539;SDS011;40438;52.992;18.604;2023-08-30T14:18:29;4.20;;;2.83;;
54539;SDS011;40438;52.992;18.604;2023-08-30T14:21:00;3.00;;;2.42;;
54539;SDS011;40438;52.992;18.604;2023-08-30T14:23:32;4.72;;;3.05;;
54539;SDS011;40438;52.992;18.604;2023-08-30T14:25:58;4.03;;;2.90;;
54539;SDS011;40438;52.992;18.604;2023-08-30T14:28:25;5.00;;;2.97;;
54539;SDS011;40438;52.992;18.604;2023-08-30T14:30:52;5.82;;;2.90;;